Helliar — 2EPP5 — position and weather

sailwx.info

Track history (hours):
 
Tides and Currents Weather Stations Pressure Air Temp Water Temp Dewpoint Dewpoint Depression Visibility Wind Speed Wind Dir Waves Ship Positions

Helliar

Last reported at 2017-Jan-21 17:30 UTC. Time now 2017-Jan-22 01:49 UTC.
Position N 57°13' W 001°55'.

Length 122 m; draft 5.1 m.

Type: Cargo ship. MMSI: 235087119.

Date/timePositionNaut miles runAvg speedWind from/ knotsBaromVisibWave heightAir tempDewpointWater temp
2017-Jan-21 17:30N 57°13' W 001°55'7 7.8
2017-Jan-21 16:32N 57°09' W 002°05'0 0.0
2017-Jan-21 15:32N 57°09' W 002°05'0 0.0
2017-Jan-21 14:32N 57°09' W 002°05'0 0.0
2017-Jan-21 13:32N 57°09' W 002°05'0 0.0
2017-Jan-21 12:32N 57°09' W 002°05'0 0.0
2017-Jan-21 11:32N 57°09' W 002°05'0 0.0
2017-Jan-21 10:32N 57°09' W 002°05'0 0.0
2017-Jan-21 09:32N 57°09' W 002°05'0 0.0
2017-Jan-21 08:32N 57°09' W 002°05'0 0.0
2017-Jan-21 07:32N 57°09' W 002°05'4 4.4
2017-Jan-21 06:33N 57°11' W 001°59'1413.9
2017-Jan-21 05:33N 57°23' W 001°46'13 0.4
2017-Jan-19 20:33N 57°36' W 001°39'2713.7
2017-Jan-19 18:33N 57°11' W 001°59'4 4.0
2017-Jan-19 17:33N 57°09' W 002°05'0 0.0
2017-Jan-19 16:33N 57°09' W 002°05'0 0.0
2017-Jan-19 15:30N 57°09' W 002°05'0 0.0
2017-Jan-19 14:33N 57°09' W 002°05'0 0.0
2017-Jan-19 13:33N 57°09' W 002°05'0 0.0
2017-Jan-19 12:33N 57°09' W 002°05'7 6.8
2017-Jan-19 11:33N 57°13' W 001°56'1313.3
2017-Jan-19 10:33N 57°25' W 001°45'1212.5
2017-Jan-19 09:33N 57°38' W 001°46'7614.2
2017-Jan-19 04:12N 58°50' W 002°33'1015.2
2017-Jan-19 03:33N 58°58' W 002°40'9 9.1
2017-Jan-19 02:31N 58°60' W 002°58'0 0.0
2017-Jan-19 01:31N 58°60' W 002°58'5 5.5
2017-Jan-19 00:33N 59°00' W 002°48'6 0.3
2017-Jan-18 04:30N 59°00' W 002°37'1111.8
2017-Jan-18 03:33N 58°60' W 002°58'0 0.1
2017-Jan-18 02:32N 58°60' W 002°58'2 2.1
2017-Jan-18 01:33N 59°01' W 002°55'1211.9
2017-Jan-18 00:33N 58°55' W 002°36'1414.2
2017-Jan-17 23:33N 58°41' W 002°27'6114.8
2017-Jan-17 19:27N 57°44' W 001°48'1314.8
2017-Jan-17 18:34N 57°31' W 001°42'2612.8
2017-Jan-17 16:33N 57°09' W 002°05'0 0.1
2017-Jan-17 15:33N 57°09' W 002°05'0 0.0
2017-Jan-17 14:33N 57°09' W 002°05'0 0.0
2017-Jan-17 13:33N 57°09' W 002°05'0 0.2
2017-Jan-17 12:31N 57°09' W 002°05'0 0.0
2017-Jan-17 11:31N 57°09' W 002°05'0 0.0
2017-Jan-17 10:31N 57°09' W 002°05'0 0.0
2017-Jan-17 09:31N 57°09' W 002°05'0 0.0
2017-Jan-17 08:31N 57°09' W 002°05'0 0.0
2017-Jan-17 07:31N 57°09' W 002°05'0 0.0
2017-Jan-17 06:31N 57°09' W 002°05'2 1.8
2017-Jan-17 05:32N 57°09' W 002°02'1913.2
2017-Jan-17 04:07N 57°24' W 001°41'713.0
2017-Jan-17 03:33N 57°31' W 001°35'6314.3
2017-Jan-16 23:09N 58°29' W 002°20'1114.1
2017-Jan-16 22:23N 58°40' W 002°26'1413.7
2017-Jan-16 21:22N 58°53' W 002°35'1012.5
2017-Jan-16 20:33N 59°00' W 002°48'5 5.3
2017-Jan-16 19:33N 58°60' W 002°58'0 0.0
2017-Jan-16 18:33N 58°60' W 002°58'0 0.0
2017-Jan-16 17:33N 58°60' W 002°58'0 0.0
2017-Jan-16 16:33N 58°60' W 002°58'0 0.0
2017-Jan-16 15:33N 58°60' W 002°58'0 0.0
2017-Jan-16 14:29N 58°60' W 002°58'0 0.0
2017-Jan-16 13:32N 58°60' W 002°58'0 0.0
2017-Jan-16 12:33N 58°60' W 002°58'0 0.0
2017-Jan-16 11:32N 58°60' W 002°58'0 0.0
2017-Jan-16 10:33N 58°60' W 002°58'0 0.0
2017-Jan-16 09:32N 58°60' W 002°58'0 0.0
2017-Jan-16 08:32N 58°60' W 002°58'0 0.0
2017-Jan-16 07:32N 58°60' W 002°58'0 0.0
2017-Jan-16 06:32N 58°60' W 002°58'0 0.0
2017-Jan-16 05:32N 58°60' W 002°58'0 0.0
2017-Jan-16 04:32N 58°60' W 002°58'0 0.0
2017-Jan-16 03:32N 58°60' W 002°58'0 0.0
2017-Jan-16 02:32N 58°60' W 002°58'0 0.0
2017-Jan-16 01:32N 58°60' W 002°58'0 0.0
2017-Jan-16 00:32N 58°60' W 002°58'1 1.5
2017-Jan-15 23:33N 59°01' W 002°57'1010.4
2017-Jan-15 22:33N 58°57' W 002°38'1312.6
2017-Jan-15 21:31N 58°45' W 002°30'7314.1
2017-Jan-15 16:18N 57°36' W 001°43'912.6
2017-Jan-15 15:33N 57°27' W 001°43'2210.6
2017-Jan-15 13:32N 57°09' W 002°05'0 0.0
2017-Jan-15 12:32N 57°09' W 002°05'0 0.0
2017-Jan-15 11:32N 57°09' W 002°05'0 0.0
2017-Jan-15 10:32N 57°09' W 002°05'0 0.0
2017-Jan-15 09:32N 57°09' W 002°05'0 0.0
2017-Jan-15 08:32N 57°09' W 002°05'0 0.4
2017-Jan-15 07:33N 57°09' W 002°05'1111.4
2017-Jan-15 06:33N 57°17' W 001°51'1212.4
2017-Jan-15 05:33N 57°28' W 001°40'8 0.2
2017-Jan-13 21:33N 57°36' W 001°42'9 9.4
2017-Jan-13 20:33N 57°26' W 001°43'1211.1
2017-Jan-13 19:28N 57°15' W 001°53'910.1
2017-Jan-13 18:33N 57°08' W 002°04'1 0.6
2017-Jan-13 17:33N 57°09' W 002°05'0 0.0
2017-Jan-13 16:33N 57°09' W 002°05'0 0.0
2017-Jan-13 15:33N 57°09' W 002°05'0 0.0
2017-Jan-13 14:33N 57°09' W 002°05'0 0.0
2017-Jan-13 13:33N 57°09' W 002°05'0 0.0
2017-Jan-13 12:33N 57°09' W 002°05'0 0.0
2017-Jan-13 11:33N 57°09' W 002°05'0 0.0
2017-Jan-13 10:33N 57°09' W 002°05'0 0.0
2017-Jan-13 09:33N 57°09' W 002°05'0 0.0
2017-Jan-13 08:33N 57°09' W 002°05'0 0.0
2017-Jan-13 07:33N 57°09' W 002°05'0 0.0
2017-Jan-13 06:33N 57°09' W 002°05'0 0.0
2017-Jan-13 05:33N 57°09' W 002°05'0 0.0
2017-Jan-13 04:33N 57°09' W 002°05'0 0.0
2017-Jan-13 03:33N 57°09' W 002°05'0 0.0
2017-Jan-13 02:33N 57°09' W 002°05'0 0.0
2017-Jan-13 01:33N 57°09' W 002°05'0 0.0
2017-Jan-13 00:33N 57°09' W 002°05'0 0.0
2017-Jan-12 23:33N 57°09' W 002°05'0 0.0
2017-Jan-12 22:33N 57°09' W 002°05'0 0.0
2017-Jan-12 21:33N 57°09' W 002°05'0 0.0
2017-Jan-12 20:33N 57°09' W 002°05'0 0.0
2017-Jan-12 19:33N 57°09' W 002°05'0 0.0
2017-Jan-12 18:33N 57°09' W 002°05'0 0.0
2017-Jan-12 17:33N 57°09' W 002°05'0 0.0
2017-Jan-12 16:33N 57°09' W 002°05'0 0.0
2017-Jan-12 15:33N 57°09' W 002°05'0 0.0
2017-Jan-12 14:33N 57°09' W 002°05'0 0.0
2017-Jan-12 13:33N 57°09' W 002°05'0 0.0
2017-Jan-12 12:33N 57°09' W 002°05'0 0.0
2017-Jan-12 11:33N 57°09' W 002°05'0 0.0
2017-Jan-12 10:33N 57°09' W 002°05'0 0.0
2017-Jan-12 09:33N 57°09' W 002°05'0 0.0
2017-Jan-12 08:33N 57°09' W 002°05'0 0.0
2017-Jan-12 07:33N 57°09' W 002°05'0 0.0
2017-Jan-12 06:33N 57°09' W 002°05'0 0.0
2017-Jan-12 05:33N 57°09' W 002°05'0 0.0
2017-Jan-12 04:33N 57°09' W 002°05'0 0.0
2017-Jan-12 03:33N 57°09' W 002°05'0 0.0
2017-Jan-12 02:33N 57°09' W 002°05'0 0.0
2017-Jan-12 01:33N 57°09' W 002°05'0 0.0
2017-Jan-12 00:33N 57°09' W 002°05'0 0.0
2017-Jan-11 23:33N 57°09' W 002°05'0 0.0
2017-Jan-11 22:33N 57°09' W 002°05'0 0.0
2017-Jan-11 21:33N 57°09' W 002°05'0 0.0
2017-Jan-11 20:33N 57°09' W 002°05'0 0.0
2017-Jan-11 19:33N 57°09' W 002°05'0 0.0
2017-Jan-11 18:33N 57°09' W 002°05'0 0.0
2017-Jan-11 17:33N 57°09' W 002°05'  
Track history (hours):
 
Tides and Currents Weather Stations Pressure Air Temp Water Temp Dewpoint Dewpoint Depression Visibility Wind Speed Wind Dir Waves Ship Positions

Helliar

Last reported at 2017-Jan-21 17:30 UTC. Time now 2017-Jan-22 01:49 UTC.
Position N 57°13' W 001°55'.

Length 122 m; draft 5.1 m.

Type: Cargo ship. MMSI: 235087119.

Date/timePositionNaut miles runAvg speedWind from/ knotsBaromVisibWave heightAir tempDewpointWater temp
2017-Jan-21 17:30N 57°13' W 001°55'7 7.8
2017-Jan-21 16:32N 57°09' W 002°05'0 0.0
2017-Jan-21 15:32N 57°09' W 002°05'0 0.0
2017-Jan-21 14:32N 57°09' W 002°05'0 0.0
2017-Jan-21 13:32N 57°09' W 002°05'0 0.0
2017-Jan-21 12:32N 57°09' W 002°05'0 0.0
2017-Jan-21 11:32N 57°09' W 002°05'0 0.0
2017-Jan-21 10:32N 57°09' W 002°05'0 0.0
2017-Jan-21 09:32N 57°09' W 002°05'0 0.0
2017-Jan-21 08:32N 57°09' W 002°05'0 0.0
2017-Jan-21 07:32N 57°09' W 002°05'4 4.4
2017-Jan-21 06:33N 57°11' W 001°59'1413.9
2017-Jan-21 05:33N 57°23' W 001°46'13 0.4
2017-Jan-19 20:33N 57°36' W 001°39'2713.7
2017-Jan-19 18:33N 57°11' W 001°59'4 4.0
2017-Jan-19 17:33N 57°09' W 002°05'0 0.0
2017-Jan-19 16:33N 57°09' W 002°05'0 0.0
2017-Jan-19 15:30N 57°09' W 002°05'0 0.0
2017-Jan-19 14:33N 57°09' W 002°05'0 0.0
2017-Jan-19 13:33N 57°09' W 002°05'0 0.0
2017-Jan-19 12:33N 57°09' W 002°05'7 6.8
2017-Jan-19 11:33N 57°13' W 001°56'1313.3
2017-Jan-19 10:33N 57°25' W 001°45'1212.5
2017-Jan-19 09:33N 57°38' W 001°46'7614.2
2017-Jan-19 04:12N 58°50' W 002°33'1015.2
2017-Jan-19 03:33N 58°58' W 002°40'9 9.1
2017-Jan-19 02:31N 58°60' W 002°58'0 0.0
2017-Jan-19 01:31N 58°60' W 002°58'5 5.5
2017-Jan-19 00:33N 59°00' W 002°48'6 0.3
2017-Jan-18 04:30N 59°00' W 002°37'1111.8
2017-Jan-18 03:33N 58°60' W 002°58'0 0.1
2017-Jan-18 02:32N 58°60' W 002°58'2 2.1
2017-Jan-18 01:33N 59°01' W 002°55'1211.9
2017-Jan-18 00:33N 58°55' W 002°36'1414.2
2017-Jan-17 23:33N 58°41' W 002°27'6114.8
2017-Jan-17 19:27N 57°44' W 001°48'1314.8
2017-Jan-17 18:34N 57°31' W 001°42'2612.8
2017-Jan-17 16:33N 57°09' W 002°05'0 0.1
2017-Jan-17 15:33N 57°09' W 002°05'0 0.0
2017-Jan-17 14:33N 57°09' W 002°05'0 0.0
2017-Jan-17 13:33N 57°09' W 002°05'0 0.2
2017-Jan-17 12:31N 57°09' W 002°05'0 0.0
2017-Jan-17 11:31N 57°09' W 002°05'0 0.0
2017-Jan-17 10:31N 57°09' W 002°05'0 0.0
2017-Jan-17 09:31N 57°09' W 002°05'0 0.0
2017-Jan-17 08:31N 57°09' W 002°05'0 0.0
2017-Jan-17 07:31N 57°09' W 002°05'0 0.0
2017-Jan-17 06:31N 57°09' W 002°05'2 1.8
2017-Jan-17 05:32N 57°09' W 002°02'1913.2
2017-Jan-17 04:07N 57°24' W 001°41'713.0
2017-Jan-17 03:33N 57°31' W 001°35'6314.3
2017-Jan-16 23:09N 58°29' W 002°20'1114.1
2017-Jan-16 22:23N 58°40' W 002°26'1413.7
2017-Jan-16 21:22N 58°53' W 002°35'1012.5
2017-Jan-16 20:33N 59°00' W 002°48'5 5.3
2017-Jan-16 19:33N 58°60' W 002°58'0 0.0
2017-Jan-16 18:33N 58°60' W 002°58'0 0.0
2017-Jan-16 17:33N 58°60' W 002°58'0 0.0
2017-Jan-16 16:33N 58°60' W 002°58'0 0.0
2017-Jan-16 15:33N 58°60' W 002°58'0 0.0
2017-Jan-16 14:29N 58°60' W 002°58'0 0.0
2017-Jan-16 13:32N 58°60' W 002°58'0 0.0
2017-Jan-16 12:33N 58°60' W 002°58'0 0.0
2017-Jan-16 11:32N 58°60' W 002°58'0 0.0
2017-Jan-16 10:33N 58°60' W 002°58'0 0.0
2017-Jan-16 09:32N 58°60' W 002°58'0 0.0
2017-Jan-16 08:32N 58°60' W 002°58'0 0.0
2017-Jan-16 07:32N 58°60' W 002°58'0 0.0
2017-Jan-16 06:32N 58°60' W 002°58'0 0.0
2017-Jan-16 05:32N 58°60' W 002°58'0 0.0
2017-Jan-16 04:32N 58°60' W 002°58'0 0.0
2017-Jan-16 03:32N 58°60' W 002°58'0 0.0
2017-Jan-16 02:32N 58°60' W 002°58'0 0.0
2017-Jan-16 01:32N 58°60' W 002°58'0 0.0
2017-Jan-16 00:32N 58°60' W 002°58'1 1.5
2017-Jan-15 23:33N 59°01' W 002°57'1010.4
2017-Jan-15 22:33N 58°57' W 002°38'1312.6
2017-Jan-15 21:31N 58°45' W 002°30'7314.1
2017-Jan-15 16:18N 57°36' W 001°43'912.6
2017-Jan-15 15:33N 57°27' W 001°43'2210.6
2017-Jan-15 13:32N 57°09' W 002°05'0 0.0
2017-Jan-15 12:32N 57°09' W 002°05'0 0.0
2017-Jan-15 11:32N 57°09' W 002°05'0 0.0
2017-Jan-15 10:32N 57°09' W 002°05'0 0.0
2017-Jan-15 09:32N 57°09' W 002°05'0 0.0
2017-Jan-15 08:32N 57°09' W 002°05'0 0.4
2017-Jan-15 07:33N 57°09' W 002°05'1111.4
2017-Jan-15 06:33N 57°17' W 001°51'1212.4
2017-Jan-15 05:33N 57°28' W 001°40'8 0.2
2017-Jan-13 21:33N 57°36' W 001°42'9 9.4
2017-Jan-13 20:33N 57°26' W 001°43'1211.1
2017-Jan-13 19:28N 57°15' W 001°53'910.1
2017-Jan-13 18:33N 57°08' W 002°04'1 0.6
2017-Jan-13 17:33N 57°09' W 002°05'0 0.0
2017-Jan-13 16:33N 57°09' W 002°05'0 0.0
2017-Jan-13 15:33N 57°09' W 002°05'0 0.0
2017-Jan-13 14:33N 57°09' W 002°05'0 0.0
2017-Jan-13 13:33N 57°09' W 002°05'0 0.0
2017-Jan-13 12:33N 57°09' W 002°05'0 0.0
2017-Jan-13 11:33N 57°09' W 002°05'0 0.0
2017-Jan-13 10:33N 57°09' W 002°05'0 0.0
2017-Jan-13 09:33N 57°09' W 002°05'0 0.0
2017-Jan-13 08:33N 57°09' W 002°05'0 0.0
2017-Jan-13 07:33N 57°09' W 002°05'0 0.0
2017-Jan-13 06:33N 57°09' W 002°05'0 0.0
2017-Jan-13 05:33N 57°09' W 002°05'0 0.0
2017-Jan-13 04:33N 57°09' W 002°05'0 0.0
2017-Jan-13 03:33N 57°09' W 002°05'0 0.0
2017-Jan-13 02:33N 57°09' W 002°05'0 0.0
2017-Jan-13 01:33N 57°09' W 002°05'0 0.0
2017-Jan-13 00:33N 57°09' W 002°05'0 0.0
2017-Jan-12 23:33N 57°09' W 002°05'0 0.0
2017-Jan-12 22:33N 57°09' W 002°05'0 0.0
2017-Jan-12 21:33N 57°09' W 002°05'0 0.0
2017-Jan-12 20:33N 57°09' W 002°05'0 0.0
2017-Jan-12 19:33N 57°09' W 002°05'0 0.0
2017-Jan-12 18:33N 57°09' W 002°05'0 0.0
2017-Jan-12 17:33N 57°09' W 002°05'0 0.0
2017-Jan-12 16:33N 57°09' W 002°05'0 0.0
2017-Jan-12 15:33N 57°09' W 002°05'0 0.0
2017-Jan-12 14:33N 57°09' W 002°05'0 0.0
2017-Jan-12 13:33N 57°09' W 002°05'0 0.0
2017-Jan-12 12:33N 57°09' W 002°05'0 0.0
2017-Jan-12 11:33N 57°09' W 002°05'0 0.0
2017-Jan-12 10:33N 57°09' W 002°05'0 0.0
2017-Jan-12 09:33N 57°09' W 002°05'0 0.0
2017-Jan-12 08:33N 57°09' W 002°05'0 0.0
2017-Jan-12 07:33N 57°09' W 002°05'0 0.0
2017-Jan-12 06:33N 57°09' W 002°05'0 0.0
2017-Jan-12 05:33N 57°09' W 002°05'0 0.0
2017-Jan-12 04:33N 57°09' W 002°05'0 0.0
2017-Jan-12 03:33N 57°09' W 002°05'0 0.0
2017-Jan-12 02:33N 57°09' W 002°05'0 0.0
2017-Jan-12 01:33N 57°09' W 002°05'0 0.0
2017-Jan-12 00:33N 57°09' W 002°05'0 0.0
2017-Jan-11 23:33N 57°09' W 002°05'0 0.0
2017-Jan-11 22:33N 57°09' W 002°05'0 0.0
2017-Jan-11 21:33N 57°09' W 002°05'0 0.0
2017-Jan-11 20:33N 57°09' W 002°05'0 0.0
2017-Jan-11 19:33N 57°09' W 002°05'0 0.0
2017-Jan-11 18:33N 57°09' W 002°05'0 0.0
2017-Jan-11 17:33N 57°09' W 002°05'  

Dump ship's entire track history